Terminal Aerodrome Forecast
Issued by NWS

Home | Current Version | Previous Version | Text Only | Print | Product List | Glossary On
Versions: 1 2 3 4 5 6 7 8 9 10 11 12 13 14 15 16 17 18 19 20 21 22 23 24 25 26
000
FTUS44 KOUN 221736
TAFLAW
TAF
KLAW 221736Z 2218/2318 24008KT P6SM SCT120
     FM222200 05007KT P6SM BKN080
      TEMPO 2301/2305 3SM TSRA OVC040CB
     FM230500 03010KT P6SM OVC050
      TEMPO 2305/2309 3SM TSRA OVC030CB
     FM230900 04009KT P6SM OVC030 PROB30 2309/2315 4SM -TSRA
      OVC015CB=

USA.gov is the U.S. government's official web portal to all federal, state and local government web resources and services.